This is the latest recevied weather packets stored in our database for station/object OK4PZ-5. If no packets are shown the sender has not sent any weather packets the latest 10 day(s).
| Time | Temp. | Humidity | Pressure | Rain* | Wind** | Luminosity | Snow |
|---|---|---|---|---|---|---|---|
| 1788422401 | 20° C | 64% | 1024 hPa | 0 mm | - | - | - |
| 1788421502 | 20.56° C | 64% | 1024 hPa | 0 mm | - | - | - |
| 1788420602 | 19.44° C | 67% | 1023 hPa | 0 mm | - | - | - |
| 1788419703 | 19.44° C | 72% | 1023 hPa | 0 mm | - | - | - |
| 1788418802 | 17.22° C | 78% | 1024 hPa | 0 mm | - | - | - |
| 1788417902 | 16.67° C | 80% | 1023 hPa | 0 mm | - | - | - |
| 1788417002 | 16.11° C | 84% | 1023 hPa | 0 mm | - | - | - |
| 1788416102 | 14.44° C | 91% | 1023 hPa | 0 mm | - | - | - |
| 1788415202 | 13.89° C | 91% | 1023 hPa | 0 mm | - | - | - |
| 1788414302 | 13.33° C | 91% | 1023 hPa | 0 mm | - | - | - |
| 1788413402 | 12.78° C | 94% | 1023 hPa | 0 mm | - | - | - |
| 1788412502 | 12.78° C | 94% | 1023 hPa | 0 mm | - | - | - |
| 1788411602 | 12.78° C | 95% | 1023 hPa | 0 mm | - | - | - |
| 1788410703 | 12.22° C | 95% | 1023 hPa | 0 mm | - | - | - |
| 1788409802 | 12.22° C | 95% | 1023 hPa | 0 mm | - | - | - |
| 1788408902 | 12.22° C | 95% | 1023 hPa | 0 mm | - | - | - |
| 1788408002 | 12.22° C | 95% | 1023 hPa | 0 mm | - | - | - |
| 1788407102 | 12.22° C | 95% | 1023 hPa | 0 mm | - | - | - |
| 1788406202 | 12.22° C | 95% | 1023 hPa | 0 mm | - | - | - |
| 1788405302 | 12.22° C | 95% | 1023 hPa | 0 mm | - | - | - |
| 1788404403 | 12.22° C | 94% | 1023 hPa | 0 mm | - | - | - |
| 1788403502 | 12.22° C | 94% | 1023 hPa | 0 mm | - | - | - |
| 1788402602 | 12.22° C | 94% | 1023 hPa | 0 mm | - | - | - |
| 1788401701 | 12.22° C | 93% | 1023 hPa | 0 mm | - | - | - |
| 1788400802 | 12.22° C | 94% | 1023 hPa | 0 mm | - | - | - |
* Rain latest hour (hover to see other rain measurements)
** Current wind speed in m/s (hover to see current wind gust speed)